Glory Ocean — 9VDE7 — position and weather

sailwx.info

Track history (hours):
 
Tides and Currents Weather Stations Pressure Air Temp Water Temp Dewpoint Dewpoint Depression Visibility Wind Speed Wind Dir Waves Ship Positions

Glory Ocean

Last reported at 2016-May-22 08:17 UTC. Time now 2016-May-26 06:55 UTC.
Position N 36°19' W 030°11'.

Length 139 m; draft 9 m.

Type: Cargo ship. MMSI: 564700000.

Date/timePositionNaut miles runAvg speedWind from/ knotsBaromVisibWave heightAir tempDewpointWater temp
2016-May-22 08:17N 36°19' W 030°11'911.4
2016-May-22 07:32N 36°20' W 030°01'4711.8
2016-May-22 03:33N 36°23' W 029°02'1311.5
2016-May-22 02:23N 36°23' W 028°46'1411.1
2016-May-22 01:06N 36°25' W 028°28'5511.3
2016-May-21 20:14N 36°28' W 027°20'1411.7
2016-May-21 19:03N 36°29' W 027°03'711.7
2016-May-21 18:25N 36°30' W 026°54'1112.0
2016-May-21 17:32N 36°31' W 026°41'1411.9
2016-May-21 16:20N 36°31' W 026°23'911.9
2016-May-21 15:33N 36°32' W 026°11'1211.8
2016-May-21 14:34N 36°33' W 025°57'1211.9
2016-May-21 13:34N 36°34' W 025°42'1211.7
2016-May-21 12:33N 36°34' W 025°27'1111.5
2016-May-21 11:33N 36°35' W 025°13'1212.1
2016-May-21 10:34N 36°36' W 024°58'1211.8
2016-May-21 09:34N 36°37' W 024°43'1211.7
2016-May-21 08:33N 36°38' W 024°29'1111.4
2016-May-21 07:33N 36°38' W 024°15'1111.0
2016-May-21 06:33N 36°39' W 024°01'1110.8
2016-May-21 05:33N 36°40' W 023°48'1111.1
2016-May-21 04:33N 36°41' W 023°34'1311.5
2016-May-21 03:27N 36°41' W 023°18'1011.6
2016-May-21 02:33N 36°42' W 023°05'1211.7
2016-May-21 01:32N 36°43' W 022°50'1211.8
2016-May-21 00:30N 36°44' W 022°35'1711.9
2016-May-20 23:07N 36°45' W 022°14'712.0
2016-May-20 22:30N 36°45' W 022°05'  
2016-May-18 14:24N 36°10' W 009°15'1311.0
2016-May-18 13:12N 36°05' W 009°00'811.0
2016-May-18 12:26N 36°01' W 008°51'3211.1
2016-May-18 09:31N 35°57' W 008°11'1411.5
2016-May-18 08:19N 35°57' W 007°54'1011.7
2016-May-18 07:29N 35°57' W 007°42'10511.8
2016-May-17 22:32N 35°58' W 005°32'9 9.5
2016-May-17 21:33N 35°59' W 005°21'5 4.8
2016-May-17 20:32N 35°54' W 005°19'0 0.0
2016-May-17 19:32N 35°54' W 005°19'0 0.0
2016-May-17 18:32N 35°54' W 005°19'0 0.0
2016-May-17 17:32N 35°54' W 005°19'0 0.0
2016-May-17 16:32N 35°54' W 005°19'0 0.0
2016-May-17 15:32N 35°54' W 005°19'0 0.0
2016-May-17 14:32N 35°54' W 005°19'0 0.0
2016-May-17 13:32N 35°54' W 005°19'0 0.0
2016-May-17 12:33N 35°54' W 005°19'7 6.3
2016-May-17 11:28N 35°56' W 005°11'17311.5
2016-May-16 20:25N 36°20' W 001°39'9512.0
2016-May-16 12:31N 36°36' E 000°17'7811.2
2016-May-16 05:31N 36°50' E 001°53'7510.6
2016-May-15 22:28N 37°03' E 003°25'27111.3
2016-May-14 22:24N 37°49' E 009°01'219 9.9
2016-May-14 00:22N 36°57' E 013°29'911.3
2016-May-13 23:33N 36°52' E 013°39'1211.5
2016-May-13 22:33N 36°46' E 013°51'1111.3
2016-May-13 21:33N 36°40' E 014°03'1111.2
2016-May-13 20:33N 36°34' E 014°15'1111.1
2016-May-13 19:33N 36°28' E 014°27'1110.7
2016-May-13 18:33N 36°25' E 014°39'1110.9
2016-May-13 17:33N 36°24' E 014°53'1110.8
2016-May-13 16:33N 36°23' E 015°06'1111.1
2016-May-13 15:30N 36°23' E 015°21'1111.1
2016-May-13 14:33N 36°22' E 015°34'1311.0
2016-May-13 13:21N 36°22' E 015°50'910.7
2016-May-13 12:33N 36°21' E 016°01'2211.0
2016-May-13 10:33N 36°20' E 016°28'  
Track history (hours):
 
Tides and Currents Weather Stations Pressure Air Temp Water Temp Dewpoint Dewpoint Depression Visibility Wind Speed Wind Dir Waves Ship Positions

Glory Ocean

Last reported at 2016-May-22 08:17 UTC. Time now 2016-May-26 06:55 UTC.
Position N 36°19' W 030°11'.

Length 139 m; draft 9 m.

Type: Cargo ship. MMSI: 564700000.

Date/timePositionNaut miles runAvg speedWind from/ knotsBaromVisibWave heightAir tempDewpointWater temp
2016-May-22 08:17N 36°19' W 030°11'911.4
2016-May-22 07:32N 36°20' W 030°01'4711.8
2016-May-22 03:33N 36°23' W 029°02'1311.5
2016-May-22 02:23N 36°23' W 028°46'1411.1
2016-May-22 01:06N 36°25' W 028°28'5511.3
2016-May-21 20:14N 36°28' W 027°20'1411.7
2016-May-21 19:03N 36°29' W 027°03'711.7
2016-May-21 18:25N 36°30' W 026°54'1112.0
2016-May-21 17:32N 36°31' W 026°41'1411.9
2016-May-21 16:20N 36°31' W 026°23'911.9
2016-May-21 15:33N 36°32' W 026°11'1211.8
2016-May-21 14:34N 36°33' W 025°57'1211.9
2016-May-21 13:34N 36°34' W 025°42'1211.7
2016-May-21 12:33N 36°34' W 025°27'1111.5
2016-May-21 11:33N 36°35' W 025°13'1212.1
2016-May-21 10:34N 36°36' W 024°58'1211.8
2016-May-21 09:34N 36°37' W 024°43'1211.7
2016-May-21 08:33N 36°38' W 024°29'1111.4
2016-May-21 07:33N 36°38' W 024°15'1111.0
2016-May-21 06:33N 36°39' W 024°01'1110.8
2016-May-21 05:33N 36°40' W 023°48'1111.1
2016-May-21 04:33N 36°41' W 023°34'1311.5
2016-May-21 03:27N 36°41' W 023°18'1011.6
2016-May-21 02:33N 36°42' W 023°05'1211.7
2016-May-21 01:32N 36°43' W 022°50'1211.8
2016-May-21 00:30N 36°44' W 022°35'1711.9
2016-May-20 23:07N 36°45' W 022°14'712.0
2016-May-20 22:30N 36°45' W 022°05'  
2016-May-18 14:24N 36°10' W 009°15'1311.0
2016-May-18 13:12N 36°05' W 009°00'811.0
2016-May-18 12:26N 36°01' W 008°51'3211.1
2016-May-18 09:31N 35°57' W 008°11'1411.5
2016-May-18 08:19N 35°57' W 007°54'1011.7
2016-May-18 07:29N 35°57' W 007°42'10511.8
2016-May-17 22:32N 35°58' W 005°32'9 9.5
2016-May-17 21:33N 35°59' W 005°21'5 4.8
2016-May-17 20:32N 35°54' W 005°19'0 0.0
2016-May-17 19:32N 35°54' W 005°19'0 0.0
2016-May-17 18:32N 35°54' W 005°19'0 0.0
2016-May-17 17:32N 35°54' W 005°19'0 0.0
2016-May-17 16:32N 35°54' W 005°19'0 0.0
2016-May-17 15:32N 35°54' W 005°19'0 0.0
2016-May-17 14:32N 35°54' W 005°19'0 0.0
2016-May-17 13:32N 35°54' W 005°19'0 0.0
2016-May-17 12:33N 35°54' W 005°19'7 6.3
2016-May-17 11:28N 35°56' W 005°11'17311.5
2016-May-16 20:25N 36°20' W 001°39'9512.0
2016-May-16 12:31N 36°36' E 000°17'7811.2
2016-May-16 05:31N 36°50' E 001°53'7510.6
2016-May-15 22:28N 37°03' E 003°25'27111.3
2016-May-14 22:24N 37°49' E 009°01'219 9.9
2016-May-14 00:22N 36°57' E 013°29'911.3
2016-May-13 23:33N 36°52' E 013°39'1211.5
2016-May-13 22:33N 36°46' E 013°51'1111.3
2016-May-13 21:33N 36°40' E 014°03'1111.2
2016-May-13 20:33N 36°34' E 014°15'1111.1
2016-May-13 19:33N 36°28' E 014°27'1110.7
2016-May-13 18:33N 36°25' E 014°39'1110.9
2016-May-13 17:33N 36°24' E 014°53'1110.8
2016-May-13 16:33N 36°23' E 015°06'1111.1
2016-May-13 15:30N 36°23' E 015°21'1111.1
2016-May-13 14:33N 36°22' E 015°34'1311.0
2016-May-13 13:21N 36°22' E 015°50'910.7
2016-May-13 12:33N 36°21' E 016°01'2211.0
2016-May-13 10:33N 36°20' E 016°28'  

Dump ship's entire track history